PWSweather.com
Personal Weather Stations
Station Observations
KNVELKO7
Elko, NV 89801

Elko, NV 89801

Lat: 40.963233, Lon: -115.592836

Elevation: 5230

Station Type: WS-2812

High Low Average
Temperature 98.3°F36.8°F 40.7°F4.8°F 71.4°F21.9°F
Dew Point 46.1°F7.8°F 23.0°F-5.0°F 32.4°F0.2°F
Winds 12.1 mph 19.5 mph Calm Calm 4.2 mph 6.8 mph
Wind Gusts 16.1 mph25.9 mph 0.4 mph0.6 mph 6.5 mph10.5 mph
Humidity 54% 11% 28%
Pressure 30.28 in1025.40 in 30.15 in1021.00 in -
Precipitation 0.00 in0.00 in - -
Hour Temp Dew Point Humidity Winds Wind Gusts Pressure Precip Precip Rate Daily Precip Total
12:00 AM 55.8°F13.2°C 26.9°F-2.8°C 33% 7.2 mph N11.6 kmh N 10.1 mph16.3 kmh 30.22 in1023.4 mb 0.00 in0.0 mm 0.00 in0.0 mm 0.00 in0.0 mm
12:05 AM 55.4°F13.0°C 26.6°F-3.0°C 33% 7.9 mph 12.7 kmh 8.9 mph14.3 kmh 30.22 in1023.4 mb 0.00 in0.0 mm 0.00 in0.0 mm 0.00 in0.0 mm
12:09 AM 55.3°F12.9°C 26.5°F-3.1°C 33% 5.2 mph 8.4 kmh 8.9 mph14.3 kmh 30.23 in1023.7 mb 0.00 in0.0 mm 0.00 in0.0 mm 0.00 in0.0 mm
12:14 AM 54.9°F12.7°C 26.1°F-3.3°C 33% 3.4 mph NNW5.5 kmh NNW 7.6 mph12.2 kmh 30.23 in1023.7 mb 0.00 in0.0 mm 0.00 in0.0 mm 0.00 in0.0 mm
12:19 AM 54.5°F12.5°C 25.8°F-3.4°C 33% 2.3 mph NNE3.7 kmh NNE 4.0 mph6.4 kmh 30.23 in1023.7 mb 0.00 in0.0 mm 0.00 in0.0 mm 0.00 in0.0 mm
12:24 AM 54.2°F12.3°C 25.6°F-3.6°C 33% 2.9 mph NNE4.7 kmh NNE 4.5 mph7.2 kmh 30.23 in1023.7 mb 0.00 in0.0 mm 0.00 in0.0 mm 0.00 in0.0 mm
12:29 AM 53.8°F12.1°C 25.9°F-3.4°C 34% 1.1 mph ESE1.8 kmh ESE 4.5 mph7.2 kmh 30.23 in1023.7 mb 0.00 in0.0 mm 0.00 in0.0 mm 0.00 in0.0 mm
12:34 AM 53.5°F11.9°C 25.7°F-3.5°C 34% 2.1 mph E3.4 kmh E 3.1 mph5.0 kmh 30.23 in1023.7 mb 0.00 in0.0 mm 0.00 in0.0 mm 0.00 in0.0 mm
12:39 AM 53.1°F11.7°C 25.3°F-3.7°C 34% Calm Calm 3.1 mph5.0 kmh 30.23 in1023.7 mb 0.00 in0.0 mm 0.00 in0.0 mm 0.00 in0.0 mm
12:44 AM 53.1°F11.7°C 26.0°F-3.3°C 35% Calm Calm 1.1 mph1.8 kmh 30.23 in1023.7 mb 0.00 in0.0 mm 0.00 in0.0 mm 0.00 in0.0 mm
12:49 AM 52.7°F11.5°C 25.7°F-3.5°C 35% 2.1 mph NNW3.4 kmh NNW 2.2 mph3.5 kmh 30.23 in1023.7 mb 0.00 in0.0 mm 0.00 in0.0 mm 0.00 in0.0 mm
12:54 AM 51.8°F11.0°C 24.1°F-4.4°C 34% 1.0 mph NNE1.6 kmh NNE 2.2 mph3.5 kmh 30.23 in1023.7 mb 0.00 in0.0 mm 0.00 in0.0 mm 0.00 in0.0 mm
01:00 AM 51.5°F10.8°C 25.2°F-3.8°C 36% 0.4 mph NNE0.6 kmh NNE 2.5 mph4.0 kmh 30.23 in1023.7 mb 0.00 in0.0 mm 0.00 in0.0 mm 0.00 in0.0 mm
01:05 AM 51.3°F10.7°C 25.8°F-3.4°C 37% 0.4 mph NNE0.6 kmh NNE 2.5 mph4.0 kmh 30.23 in1023.7 mb 0.00 in0.0 mm 0.00 in0.0 mm 0.00 in0.0 mm
01:10 AM 51.5°F10.8°C 25.9°F-3.4°C 37% 1.6 mph 2.6 kmh 1.6 mph2.6 kmh 30.23 in1023.7 mb 0.00 in0.0 mm 0.00 in0.0 mm 0.00 in0.0 mm
01:15 AM 51.1°F10.6°C 25.6°F-3.6°C 37% 2.1 mph 3.4 kmh 2.5 mph4.0 kmh 30.23 in1023.7 mb 0.00 in0.0 mm 0.00 in0.0 mm 0.00 in0.0 mm
01:20 AM 50.8°F10.4°C 25.2°F-3.8°C 37% 0.2 mph 0.3 kmh 2.5 mph4.0 kmh 30.23 in1023.7 mb 0.00 in0.0 mm 0.00 in0.0 mm 0.00 in0.0 mm
01:25 AM 50.2°F10.1°C 24.8°F-4.0°C 37% 1.9 mph 3.1 kmh 2.7 mph4.3 kmh 30.23 in1023.7 mb 0.00 in0.0 mm 0.00 in0.0 mm 0.00 in0.0 mm
01:30 AM 49.5°F9.7°C 24.9°F-3.9°C 38% 1.8 mph 2.9 kmh 3.6 mph5.8 kmh 30.23 in1023.7 mb 0.00 in0.0 mm 0.00 in0.0 mm 0.00 in0.0 mm
01:35 AM 49.1°F9.5°C 24.5°F-4.2°C 38% 2.2 mph N3.5 kmh N 3.6 mph5.8 kmh 30.23 in1023.7 mb 0.00 in0.0 mm 0.00 in0.0 mm 0.00 in0.0 mm
01:40 AM 48.6°F9.2°C 24.0°F-4.4°C 38% 2.0 mph 3.2 kmh 3.1 mph5.0 kmh 30.23 in1023.7 mb 0.00 in0.0 mm 0.00 in0.0 mm 0.00 in0.0 mm
01:45 AM 48.2°F9.0°C 23.7°F-4.6°C 38% 2.2 mph 3.5 kmh 3.1 mph5.0 kmh 30.23 in1023.7 mb 0.00 in0.0 mm 0.00 in0.0 mm 0.00 in0.0 mm
01:50 AM 48.2°F9.0°C 24.4°F-4.2°C 39% 2.7 mph 4.3 kmh 3.1 mph5.0 kmh 30.23 in1023.7 mb 0.00 in0.0 mm 0.00 in0.0 mm 0.00 in0.0 mm
01:55 AM 48.8°F9.3°C 24.9°F-3.9°C 39% 2.0 mph 3.2 kmh 3.1 mph5.0 kmh 30.23 in1023.7 mb 0.00 in0.0 mm 0.00 in0.0 mm 0.00 in0.0 mm
02:00 AM 49.1°F9.5°C 25.8°F-3.4°C 40% 1.0 mph NNE1.6 kmh NNE 3.1 mph5.0 kmh 30.23 in1023.7 mb 0.00 in0.0 mm 0.00 in0.0 mm 0.00 in0.0 mm
02:05 AM 49.3°F9.6°C 25.3°F-3.7°C 39% 1.8 mph E2.9 kmh E 1.8 mph2.9 kmh 30.23 in1023.7 mb 0.00 in0.0 mm 0.00 in0.0 mm 0.00 in0.0 mm
02:10 AM 49.0°F9.4°C 25.7°F-3.5°C 40% 2.2 mph E3.5 kmh E 2.2 mph3.5 kmh 30.23 in1023.7 mb 0.00 in0.0 mm 0.00 in0.0 mm 0.00 in0.0 mm
02:15 AM 48.6°F9.2°C 25.9°F-3.4°C 41% 3.5 mph E5.6 kmh E 4.0 mph6.4 kmh 30.23 in1023.7 mb 0.00 in0.0 mm 0.00 in0.0 mm 0.00 in0.0 mm
02:20 AM 48.6°F9.2°C 27.0°F-2.8°C 43% 3.5 mph ENE5.6 kmh ENE 4.0 mph6.4 kmh 30.23 in1023.7 mb 0.00 in0.0 mm 0.00 in0.0 mm 0.00 in0.0 mm
02:25 AM 48.4°F9.1°C 26.3°F-3.2°C 42% 0.7 mph ENE1.1 kmh ENE 4.0 mph6.4 kmh 30.23 in1023.7 mb 0.00 in0.0 mm 0.00 in0.0 mm 0.00 in0.0 mm
02:30 AM 48.1°F8.9°C 25.9°F-3.4°C 42% 2.5 mph NE4.0 kmh NE 2.7 mph4.3 kmh 30.23 in1023.7 mb 0.00 in0.0 mm 0.00 in0.0 mm 0.00 in0.0 mm
02:35 AM 47.3°F8.5°C 25.3°F-3.7°C 42% Calm Calm 3.6 mph5.8 kmh 30.23 in1023.7 mb 0.00 in0.0 mm 0.00 in0.0 mm 0.00 in0.0 mm
02:40 AM 46.8°F8.2°C 24.9°F-3.9°C 42% 3.5 mph 5.6 kmh 4.0 mph6.4 kmh 30.23 in1023.7 mb 0.00 in0.0 mm 0.00 in0.0 mm 0.00 in0.0 mm
02:45 AM 46.6°F8.1°C 24.7°F-4.1°C 42% 1.9 mph 3.1 kmh 4.0 mph6.4 kmh 30.23 in1023.7 mb 0.00 in0.0 mm 0.00 in0.0 mm 0.00 in0.0 mm
02:50 AM 46.3°F7.9°C 24.8°F-4.0°C 43% 1.8 mph NNE2.9 kmh NNE 3.6 mph5.8 kmh 30.23 in1023.7 mb 0.00 in0.0 mm 0.00 in0.0 mm 0.00 in0.0 mm
02:55 AM 45.7°F7.6°C 25.5°F-3.6°C 45% 4.3 mph N6.9 kmh N 4.7 mph7.6 kmh 30.23 in1023.7 mb 0.00 in0.0 mm 0.00 in0.0 mm 0.00 in0.0 mm
03:01 AM 45.7°F7.6°C 27.1°F-2.7°C 48% 3.7 mph ENE6.0 kmh ENE 4.7 mph7.6 kmh 30.23 in1023.7 mb 0.00 in0.0 mm 0.00 in0.0 mm 0.00 in0.0 mm
03:06 AM 46.1°F7.8°C 26.8°F-2.9°C 47% 2.6 mph ENE4.2 kmh ENE 3.8 mph6.1 kmh 30.23 in1023.7 mb 0.00 in0.0 mm 0.00 in0.0 mm 0.00 in0.0 mm
03:11 AM 45.9°F7.7°C 26.7°F-2.9°C 47% 2.6 mph E4.2 kmh E 3.6 mph5.8 kmh 30.23 in1023.7 mb 0.00 in0.0 mm 0.00 in0.0 mm 0.00 in0.0 mm
03:16 AM 45.7°F7.6°C 25.5°F-3.6°C 45% 2.5 mph N4.0 kmh N 3.6 mph5.8 kmh 30.23 in1023.7 mb 0.00 in0.0 mm 0.00 in0.0 mm 0.00 in0.0 mm
03:21 AM 45.7°F7.6°C 26.0°F-3.3°C 46% 4.1 mph 6.6 kmh 4.7 mph7.6 kmh 30.23 in1023.7 mb 0.00 in0.0 mm 0.00 in0.0 mm 0.00 in0.0 mm
03:26 AM 45.7°F7.6°C 26.0°F-3.3°C 46% 3.9 mph 6.3 kmh 4.7 mph7.6 kmh 30.23 in1023.7 mb 0.00 in0.0 mm 0.00 in0.0 mm 0.00 in0.0 mm
03:30 AM 46.1°F7.8°C 26.8°F-2.9°C 47% 3.5 mph 5.6 kmh 4.3 mph6.9 kmh 30.23 in1023.7 mb 0.00 in0.0 mm 0.00 in0.0 mm 0.00 in0.0 mm
03:35 AM 46.1°F7.8°C 26.3°F-3.2°C 46% 1.3 mph 2.1 kmh 4.3 mph6.9 kmh 30.23 in1023.7 mb 0.00 in0.0 mm 0.00 in0.0 mm 0.00 in0.0 mm
03:40 AM 46.1°F7.8°C 26.3°F-3.2°C 46% 3.2 mph 5.1 kmh 3.8 mph6.1 kmh 30.23 in1023.7 mb 0.00 in0.0 mm 0.00 in0.0 mm 0.00 in0.0 mm
03:45 AM 46.1°F7.8°C 27.4°F-2.6°C 48% 5.6 mph N9.0 kmh N 5.8 mph9.3 kmh 30.23 in1023.7 mb 0.00 in0.0 mm 0.00 in0.0 mm 0.00 in0.0 mm
03:50 AM 45.7°F7.6°C 26.6°F-3.0°C 47% 5.1 mph NNE8.2 kmh NNE 6.3 mph10.1 kmh 30.23 in1023.7 mb 0.00 in0.0 mm 0.00 in0.0 mm 0.00 in0.0 mm
03:55 AM 45.4°F7.4°C 26.7°F-2.9°C 48% 6.6 mph 10.6 kmh 6.9 mph11.1 kmh 30.23 in1023.7 mb 0.00 in0.0 mm 0.00 in0.0 mm 0.00 in0.0 mm
04:01 AM 45.0°F7.2°C 26.5°F-3.1°C 48% 4.7 mph NNE7.6 kmh NNE 6.9 mph11.1 kmh 30.24 in1024.0 mb 0.00 in0.0 mm 0.00 in0.0 mm 0.00 in0.0 mm
04:06 AM 44.8°F7.1°C 26.8°F-2.9°C 49% 4.4 mph NNE7.1 kmh NNE 6.0 mph9.7 kmh 30.23 in1023.7 mb 0.00 in0.0 mm 0.00 in0.0 mm 0.00 in0.0 mm
04:11 AM 44.8°F7.1°C 27.4°F-2.6°C 50% 5.2 mph NNE8.4 kmh NNE 6.0 mph9.7 kmh 30.24 in1024.0 mb 0.00 in0.0 mm 0.00 in0.0 mm 0.00 in0.0 mm
04:16 AM 44.6°F7.0°C 27.2°F-2.7°C 50% 3.3 mph N5.3 kmh N 6.0 mph9.7 kmh 30.24 in1024.0 mb 0.00 in0.0 mm 0.00 in0.0 mm 0.00 in0.0 mm
04:21 AM 44.3°F6.8°C 26.3°F-3.2°C 49% 3.7 mph NNE6.0 kmh NNE 5.4 mph8.7 kmh 30.24 in1024.0 mb 0.00 in0.0 mm 0.00 in0.0 mm 0.00 in0.0 mm
04:26 AM 44.1°F6.7°C 26.7°F-2.9°C 50% 5.9 mph NNE9.5 kmh NNE 6.3 mph10.1 kmh 30.24 in1024.0 mb 0.00 in0.0 mm 0.00 in0.0 mm 0.00 in0.0 mm
04:31 AM 43.9°F6.6°C 26.6°F-3.0°C 50% 5.8 mph NNE9.3 kmh NNE 6.3 mph10.1 kmh 30.24 in1024.0 mb 0.00 in0.0 mm 0.00 in0.0 mm 0.00 in0.0 mm
04:36 AM 43.7°F6.5°C 26.8°F-2.9°C 51% 5.8 mph NNE9.3 kmh NNE 6.3 mph10.1 kmh 30.24 in1024.0 mb 0.00 in0.0 mm 0.00 in0.0 mm 0.00 in0.0 mm
04:41 AM 43.6°F6.4°C 26.6°F-3.0°C 51% 3.8 mph NNE6.1 kmh NNE 6.3 mph10.1 kmh 30.24 in1024.0 mb 0.00 in0.0 mm 0.00 in0.0 mm 0.00 in0.0 mm
04:46 AM 43.6°F6.4°C 26.2°F-3.2°C 50% 0.2 mph NNE0.3 kmh NNE 4.9 mph7.9 kmh 30.24 in1024.0 mb 0.00 in0.0 mm 0.00 in0.0 mm 0.00 in0.0 mm
04:51 AM 43.0°F6.1°C 25.2°F-3.8°C 49% 0.4 mph NNE0.6 kmh NNE 3.4 mph5.5 kmh 30.25 in1024.4 mb 0.00 in0.0 mm 0.00 in0.0 mm 0.00 in0.0 mm
04:56 AM 42.7°F5.9°C 25.4°F-3.7°C 50% 0.4 mph NNE0.6 kmh NNE 0.4 mph0.6 kmh 30.25 in1024.4 mb 0.00 in0.0 mm 0.00 in0.0 mm 0.00 in0.0 mm
05:01 AM 42.5°F5.8°C 25.2°F-3.8°C 50% 0.3 mph NNE0.5 kmh NNE 0.4 mph0.6 kmh 30.24 in1024.0 mb 0.00 in0.0 mm 0.00 in0.0 mm 0.00 in0.0 mm
05:06 AM 42.3°F5.7°C 24.5°F-4.2°C 49% Calm Calm 0.4 mph0.6 kmh 30.24 in1024.0 mb 0.00 in0.0 mm 0.00 in0.0 mm 0.00 in0.0 mm
05:11 AM 42.1°F5.6°C 24.3°F-4.3°C 49% 1.2 mph NNE1.9 kmh NNE 1.3 mph2.1 kmh 30.25 in1024.4 mb 0.00 in0.0 mm 0.00 in0.0 mm 0.00 in0.0 mm
05:16 AM 41.6°F5.3°C 23.8°F-4.6°C 49% 1.5 mph NNE2.4 kmh NNE 2.0 mph3.2 kmh 30.25 in1024.4 mb 0.00 in0.0 mm 0.00 in0.0 mm 0.00 in0.0 mm
05:21 AM 41.2°F5.1°C 23.4°F-4.8°C 49% 0.9 mph NNE1.4 kmh NNE 2.0 mph3.2 kmh 30.25 in1024.4 mb 0.00 in0.0 mm 0.00 in0.0 mm 0.00 in0.0 mm
05:26 AM 40.7°F4.8°C 23.0°F-5.0°C 49% 5.4 mph 8.7 kmh 5.8 mph9.3 kmh 30.25 in1024.4 mb 0.00 in0.0 mm 0.00 in0.0 mm 0.00 in0.0 mm
05:31 AM 40.7°F4.8°C 23.4°F-4.8°C 50% 0.8 mph NE1.3 kmh NE 5.8 mph9.3 kmh 30.25 in1024.4 mb 0.00 in0.0 mm 0.00 in0.0 mm 0.00 in0.0 mm
05:36 AM 41.0°F5.0°C 24.7°F-4.1°C 52% 2.7 mph 4.3 kmh 4.0 mph6.4 kmh 30.25 in1024.4 mb 0.00 in0.0 mm 0.00 in0.0 mm 0.00 in0.0 mm
05:41 AM 41.0°F5.0°C 24.2°F-4.3°C 51% 4.9 mph N7.9 kmh N 5.1 mph8.2 kmh 30.25 in1024.4 mb 0.00 in0.0 mm 0.00 in0.0 mm 0.00 in0.0 mm
05:46 AM 41.6°F5.3°C 25.2°F-3.8°C 52% 0.4 mph 0.6 kmh 5.1 mph8.2 kmh 30.26 in1024.7 mb 0.00 in0.0 mm 0.00 in0.0 mm 0.00 in0.0 mm
05:51 AM 42.5°F5.8°C 26.6°F-3.0°C 53% 1.2 mph ENE1.9 kmh ENE 4.7 mph7.6 kmh 30.26 in1024.7 mb 0.00 in0.0 mm 0.00 in0.0 mm 0.00 in0.0 mm
05:56 AM 43.6°F6.4°C 27.6°F-2.4°C 53% 0.9 mph ENE1.4 kmh ENE 1.8 mph2.9 kmh 30.26 in1024.7 mb 0.00 in0.0 mm 0.00 in0.0 mm 0.00 in0.0 mm
06:02 AM 44.8°F7.1°C 28.7°F-1.8°C 53% 0.4 mph ENE0.6 kmh ENE 1.8 mph2.9 kmh 30.26 in1024.7 mb 0.00 in0.0 mm 0.00 in0.0 mm 0.00 in0.0 mm
06:07 AM 46.1°F7.8°C 29.8°F-1.2°C 53% 1.9 mph E3.1 kmh E 2.5 mph4.0 kmh 30.26 in1024.7 mb 0.00 in0.0 mm 0.00 in0.0 mm 0.00 in0.0 mm
06:12 AM 47.2°F8.4°C 30.8°F-0.7°C 53% 2.4 mph E3.9 kmh E 3.1 mph5.0 kmh 30.26 in1024.7 mb 0.00 in0.0 mm 0.00 in0.0 mm 0.00 in0.0 mm
06:17 AM 48.6°F9.2°C 32.7°F0.4°C 54% 1.9 mph E3.1 kmh E 3.1 mph5.0 kmh 30.26 in1024.7 mb 0.00 in0.0 mm 0.00 in0.0 mm 0.00 in0.0 mm
06:22 AM 49.9°F9.9°C 33.8°F1.0°C 54% 4.7 mph E7.6 kmh E 4.7 mph7.6 kmh 30.27 in1025.1 mb 0.00 in0.0 mm 0.00 in0.0 mm 0.00 in0.0 mm
06:27 AM 50.8°F10.4°C 34.2°F1.2°C 53% 2.8 mph E4.5 kmh E 4.7 mph7.6 kmh 30.27 in1025.1 mb 0.00 in0.0 mm 0.00 in0.0 mm 0.00 in0.0 mm
06:31 AM 51.5°F10.8°C 34.4°F1.3°C 52% 3.7 mph E6.0 kmh E 4.7 mph7.6 kmh 30.27 in1025.1 mb 0.00 in0.0 mm 0.00 in0.0 mm 0.00 in0.0 mm
06:36 AM 52.2°F11.2°C 34.7°F1.5°C 51% 3.5 mph E5.6 kmh E 4.5 mph7.2 kmh 30.27 in1025.1 mb 0.00 in0.0 mm 0.00 in0.0 mm 0.00 in0.0 mm
06:41 AM 52.9°F11.6°C 35.3°F1.8°C 51% 4.7 mph E7.6 kmh E 5.4 mph8.7 kmh 30.27 in1025.1 mb 0.00 in0.0 mm 0.00 in0.0 mm 0.00 in0.0 mm
06:46 AM 53.6°F12.0°C 35.9°F2.2°C 51% 3.8 mph E6.1 kmh E 5.4 mph8.7 kmh 30.27 in1025.1 mb 0.00 in0.0 mm 0.00 in0.0 mm 0.00 in0.0 mm
06:51 AM 54.5°F12.5°C 36.3°F2.4°C 50% 3.3 mph E5.3 kmh E 4.9 mph7.9 kmh 30.27 in1025.1 mb 0.00 in0.0 mm 0.00 in0.0 mm 0.00 in0.0 mm
06:56 AM 55.3°F12.9°C 36.9°F2.7°C 50% 3.5 mph E5.6 kmh E 4.9 mph7.9 kmh 30.27 in1025.1 mb 0.00 in0.0 mm 0.00 in0.0 mm 0.00 in0.0 mm
07:02 AM 56.2°F13.4°C 37.3°F2.9°C 49% 3.3 mph E5.3 kmh E 4.5 mph7.2 kmh 30.27 in1025.1 mb 0.00 in0.0 mm 0.00 in0.0 mm 0.00 in0.0 mm
07:07 AM 56.9°F13.8°C 37.4°F3.0°C 48% 2.2 mph NE3.5 kmh NE 4.0 mph6.4 kmh 30.27 in1025.1 mb 0.00 in0.0 mm 0.00 in0.0 mm 0.00 in0.0 mm
07:12 AM 57.6°F14.2°C 37.4°F3.0°C 47% 2.3 mph NE3.7 kmh NE 2.7 mph4.3 kmh 30.28 in1025.4 mb 0.00 in0.0 mm 0.00 in0.0 mm 0.00 in0.0 mm
07:17 AM 58.3°F14.6°C 38.2°F3.4°C 47% 1.5 mph E2.4 kmh E 2.9 mph4.7 kmh 30.27 in1025.1 mb 0.00 in0.0 mm 0.00 in0.0 mm 0.00 in0.0 mm
07:22 AM 59.0°F15.0°C 38.2°F3.4°C 46% 2.0 mph NNE3.2 kmh NNE 3.1 mph5.0 kmh 30.27 in1025.1 mb 0.00 in0.0 mm 0.00 in0.0 mm 0.00 in0.0 mm
07:27 AM 59.9°F15.5°C 38.4°F3.6°C 45% 2.5 mph ENE4.0 kmh ENE 3.1 mph5.0 kmh 30.27 in1025.1 mb 0.00 in0.0 mm 0.00 in0.0 mm 0.00 in0.0 mm
07:32 AM 60.7°F15.9°C 38.5°F3.6°C 44% 3.0 mph ENE4.8 kmh ENE 3.1 mph5.0 kmh 30.27 in1025.1 mb 0.00 in0.0 mm 0.00 in0.0 mm 0.00 in0.0 mm
07:37 AM 61.2°F16.2°C 38.4°F3.6°C 43% 2.0 mph ENE3.2 kmh ENE 3.1 mph5.0 kmh 30.27 in1025.1 mb 0.00 in0.0 mm 0.00 in0.0 mm 0.00 in0.0 mm
07:42 AM 61.9°F16.6°C 39.1°F3.9°C 43% 0.8 mph ESE1.3 kmh ESE 2.9 mph4.7 kmh 30.27 in1025.1 mb 0.00 in0.0 mm 0.00 in0.0 mm 0.00 in0.0 mm
07:47 AM 62.8°F17.1°C 39.3°F4.1°C 42% 2.6 mph ENE4.2 kmh ENE 3.4 mph5.5 kmh 30.27 in1025.1 mb 0.00 in0.0 mm 0.00 in0.0 mm 0.00 in0.0 mm
07:52 AM 63.4°F17.4°C 39.3°F4.1°C 41% Calm Calm 3.4 mph5.5 kmh 30.27 in1025.1 mb 0.00 in0.0 mm 0.00 in0.0 mm 0.00 in0.0 mm
07:57 AM 64.3°F17.9°C 39.4°F4.1°C 40% 0.9 mph ESE1.4 kmh ESE 2.5 mph4.0 kmh 30.27 in1025.1 mb 0.00 in0.0 mm 0.00 in0.0 mm 0.00 in0.0 mm
08:02 AM 64.6°F18.1°C 39.1°F3.9°C 39% 3.7 mph NE6.0 kmh NE 4.0 mph6.4 kmh 30.27 in1025.1 mb 0.00 in0.0 mm 0.00 in0.0 mm 0.00 in0.0 mm
08:07 AM 65.2°F18.4°C 39.5°F4.2°C 39% 2.0 mph SSW3.2 kmh SSW 4.0 mph6.4 kmh 30.27 in1025.1 mb 0.00 in0.0 mm 0.00 in0.0 mm 0.00 in0.0 mm
08:12 AM 66.2°F19.0°C 39.8°F4.3°C 38% 1.8 mph SE2.9 kmh SE 2.2 mph3.5 kmh 30.27 in1025.1 mb 0.00 in0.0 mm 0.00 in0.0 mm 0.00 in0.0 mm
08:17 AM 67.3°F19.6°C 41.5°F5.3°C 39% 1.3 mph S2.1 kmh S 3.1 mph5.0 kmh 30.27 in1025.1 mb 0.00 in0.0 mm 0.00 in0.0 mm 0.00 in0.0 mm
08:22 AM 68.2°F20.1°C 41.5°F5.3°C 38% 2.5 mph SSW4.0 kmh SSW 3.1 mph5.0 kmh 30.27 in1025.1 mb 0.00 in0.0 mm 0.00 in0.0 mm 0.00 in0.0 mm
08:27 AM 69.1°F20.6°C 42.3°F5.7°C 38% 1.8 mph SW2.9 kmh SW 2.5 mph4.0 kmh 30.27 in1025.1 mb 0.00 in0.0 mm 0.00 in0.0 mm 0.00 in0.0 mm
08:32 AM 70.2°F21.2°C 43.3°F6.3°C 38% 1.5 mph SSE2.4 kmh SSE 1.8 mph2.9 kmh 30.27 in1025.1 mb 0.00 in0.0 mm 0.00 in0.0 mm 0.00 in0.0 mm
08:37 AM 70.9°F21.6°C 42.5°F5.8°C 36% 2.7 mph SSW4.3 kmh SSW 2.7 mph4.3 kmh 30.27 in1025.1 mb 0.00 in0.0 mm 0.00 in0.0 mm 0.00 in0.0 mm
08:42 AM 71.8°F22.1°C 43.3°F6.3°C 36% Calm Calm 2.7 mph4.3 kmh 30.27 in1025.1 mb 0.00 in0.0 mm 0.00 in0.0 mm 0.00 in0.0 mm
08:47 AM 72.4°F22.4°C 42.3°F5.7°C 34% 3.0 mph SW4.8 kmh SW 3.6 mph5.8 kmh 30.27 in1025.1 mb 0.00 in0.0 mm 0.00 in0.0 mm 0.00 in0.0 mm
08:52 AM 72.9°F22.7°C 41.9°F5.5°C 33% 0.3 mph WSW0.5 kmh WSW 3.6 mph5.8 kmh 30.27 in1025.1 mb 0.00 in0.0 mm 0.00 in0.0 mm 0.00 in0.0 mm
08:57 AM 73.1°F22.8°C 42.1°F5.6°C 33% 3.3 mph SW5.3 kmh SW 3.6 mph5.8 kmh 30.27 in1025.1 mb 0.00 in0.0 mm 0.00 in0.0 mm 0.00 in0.0 mm
09:03 AM 73.4°F23.0°C 43.2°F6.2°C 34% 1.9 mph S3.1 kmh S 3.6 mph5.8 kmh 30.27 in1025.1 mb 0.00 in0.0 mm 0.00 in0.0 mm 0.00 in0.0 mm
09:08 AM 74.5°F23.6°C 43.4°F6.3°C 33% 1.8 mph SW2.9 kmh SW 3.4 mph5.5 kmh 30.27 in1025.1 mb 0.00 in0.0 mm 0.00 in0.0 mm 0.00 in0.0 mm
09:13 AM 74.7°F23.7°C 41.3°F5.2°C 30% 2.8 mph WSW4.5 kmh WSW 5.4 mph8.7 kmh 30.26 in1024.7 mb 0.00 in0.0 mm 0.00 in0.0 mm 0.00 in0.0 mm
09:18 AM 75.1°F23.9°C 43.1°F6.2°C 32% 2.2 mph SSW3.5 kmh SSW 5.4 mph8.7 kmh 30.26 in1024.7 mb 0.00 in0.0 mm 0.00 in0.0 mm 0.00 in0.0 mm
09:23 AM 76.1°F24.5°C 43.3°F6.3°C 31% 0.3 mph WSW0.5 kmh WSW 3.6 mph5.8 kmh 30.26 in1024.7 mb 0.00 in0.0 mm 0.00 in0.0 mm 0.00 in0.0 mm
09:28 AM 76.5°F24.7°C 42.9°F6.1°C 30% 2.9 mph S4.7 kmh S 5.4 mph8.7 kmh 30.26 in1024.7 mb 0.00 in0.0 mm 0.00 in0.0 mm 0.00 in0.0 mm
09:33 AM 77.8°F25.4°C 45.5°F7.5°C 32% 2.7 mph SSW4.3 kmh SSW 5.4 mph8.7 kmh 30.26 in1024.7 mb 0.00 in0.0 mm 0.00 in0.0 mm 0.00 in0.0 mm
09:38 AM 78.8°F26.0°C 43.7°F6.5°C 29% 4.0 mph SE6.4 kmh SE 4.0 mph6.4 kmh 30.26 in1024.7 mb 0.00 in0.0 mm 0.00 in0.0 mm 0.00 in0.0 mm
09:43 AM 79.6°F26.4°C 44.5°F6.9°C 29% 3.3 mph SW5.3 kmh SW 4.5 mph7.2 kmh 30.26 in1024.7 mb 0.00 in0.0 mm 0.00 in0.0 mm 0.00 in0.0 mm
09:48 AM 80.3°F26.8°C 46.1°F7.8°C 30% 1.9 mph SW3.1 kmh SW 4.5 mph7.2 kmh 30.26 in1024.7 mb 0.00 in0.0 mm 0.00 in0.0 mm 0.00 in0.0 mm
09:52 AM 80.3°F26.8°C 43.0°F6.1°C 27% 3.9 mph WSW6.3 kmh WSW 5.1 mph8.2 kmh 30.26 in1024.7 mb 0.00 in0.0 mm 0.00 in0.0 mm 0.00 in0.0 mm
09:57 AM 80.6°F27.0°C 44.4°F6.9°C 28% 2.1 mph SW3.4 kmh SW 5.1 mph8.2 kmh 30.26 in1024.7 mb 0.00 in0.0 mm 0.00 in0.0 mm 0.00 in0.0 mm
10:03 AM 81.4°F27.4°C 44.9°F7.2°C 28% 4.3 mph SW6.9 kmh SW 4.9 mph7.9 kmh 30.26 in1024.7 mb 0.00 in0.0 mm 0.00 in0.0 mm 0.00 in0.0 mm
10:08 AM 81.4°F27.4°C 41.8°F5.4°C 25% 1.4 mph 2.3 kmh 6.3 mph10.1 kmh 30.25 in1024.4 mb 0.00 in0.0 mm 0.00 in0.0 mm 0.00 in0.0 mm
10:13 AM 81.7°F27.6°C 43.1°F6.2°C 26% 3.6 mph ESE5.8 kmh ESE 6.3 mph10.1 kmh 30.25 in1024.4 mb 0.00 in0.0 mm 0.00 in0.0 mm 0.00 in0.0 mm
10:18 AM 82.3°F27.9°C 40.4°F4.7°C 23% 5.3 mph E8.5 kmh E 6.0 mph9.7 kmh 30.25 in1024.4 mb 0.00 in0.0 mm 0.00 in0.0 mm 0.00 in0.0 mm
10:23 AM 82.4°F28.0°C 38.5°F3.6°C 21% 6.6 mph N10.6 kmh N 6.7 mph10.8 kmh 30.25 in1024.4 mb 0.00 in0.0 mm 0.00 in0.0 mm 0.00 in0.0 mm
10:28 AM 82.4°F28.0°C 38.5°F3.6°C 21% 1.2 mph SE1.9 kmh SE 6.7 mph10.8 kmh 30.25 in1024.4 mb 0.00 in0.0 mm 0.00 in0.0 mm 0.00 in0.0 mm
10:33 AM 83.3°F28.5°C 34.7°F1.5°C 18% 10.5 mph NE16.9 kmh NE 11.9 mph19.2 kmh 30.25 in1024.4 mb 0.00 in0.0 mm 0.00 in0.0 mm 0.00 in0.0 mm
10:38 AM 82.8°F28.2°C 34.4°F1.3°C 18% 3.7 mph NW6.0 kmh NW 11.9 mph19.2 kmh 30.25 in1024.4 mb 0.00 in0.0 mm 0.00 in0.0 mm 0.00 in0.0 mm
10:43 AM 83.2°F28.4°C 36.4°F2.4°C 19% 6.8 mph N10.9 kmh N 9.4 mph15.1 kmh 30.25 in1024.4 mb 0.00 in0.0 mm 0.00 in0.0 mm 0.00 in0.0 mm
10:48 AM 83.0°F28.3°C 34.5°F1.4°C 18% 7.5 mph NW12.1 kmh NW 9.4 mph15.1 kmh 30.25 in1024.4 mb 0.00 in0.0 mm 0.00 in0.0 mm 0.00 in0.0 mm
10:53 AM 83.2°F28.4°C 34.7°F1.5°C 18% 5.4 mph N8.7 kmh N 9.2 mph14.8 kmh 30.25 in1024.4 mb 0.00 in0.0 mm 0.00 in0.0 mm 0.00 in0.0 mm
10:58 AM 83.2°F28.4°C 33.0°F0.6°C 17% 7.4 mph NE11.9 kmh NE 9.2 mph14.8 kmh 30.25 in1024.4 mb 0.00 in0.0 mm 0.00 in0.0 mm 0.00 in0.0 mm
11:03 AM 83.2°F28.4°C 33.0°F0.6°C 17% 1.0 mph E1.6 kmh E 9.2 mph14.8 kmh 30.25 in1024.4 mb 0.00 in0.0 mm 0.00 in0.0 mm 0.00 in0.0 mm
11:08 AM 84.8°F29.3°C 41.5°F5.3°C 22% 1.4 mph SSE2.3 kmh SSE 9.2 mph14.8 kmh 30.25 in1024.4 mb 0.00 in0.0 mm 0.00 in0.0 mm 0.00 in0.0 mm
11:13 AM 85.9°F29.9°C 35.0°F1.7°C 17% 8.5 mph 13.7 kmh 11.6 mph18.7 kmh 30.25 in1024.4 mb 0.00 in0.0 mm 0.00 in0.0 mm 0.00 in0.0 mm
11:18 AM 85.3°F29.6°C 34.7°F1.5°C 17% 10.2 mph 16.4 kmh 15.0 mph24.1 kmh 30.25 in1024.4 mb 0.00 in0.0 mm 0.00 in0.0 mm 0.00 in0.0 mm
11:23 AM 84.6°F29.2°C 30.6°F-0.8°C 15% 9.7 mph N15.6 kmh N 15.0 mph24.1 kmh 30.25 in1024.4 mb 0.00 in0.0 mm 0.00 in0.0 mm 0.00 in0.0 mm
11:28 AM 84.2°F29.0°C 32.0°F0.0°C 16% 2.3 mph NNW3.7 kmh NNW 9.8 mph15.8 kmh 30.25 in1024.4 mb 0.00 in0.0 mm 0.00 in0.0 mm 0.00 in0.0 mm
11:33 AM 84.6°F29.2°C 32.3°F0.2°C 16% 4.3 mph N6.9 kmh N 8.9 mph14.3 kmh 30.25 in1024.4 mb 0.00 in0.0 mm 0.00 in0.0 mm 0.00 in0.0 mm
11:38 AM 84.2°F29.0°C 30.3°F-0.9°C 15% 7.2 mph NNE11.6 kmh NNE 12.1 mph19.5 kmh 30.25 in1024.4 mb 0.00 in0.0 mm 0.00 in0.0 mm 0.00 in0.0 mm
11:43 AM 85.1°F29.5°C 32.8°F0.4°C 16% 5.1 mph NNW8.2 kmh NNW 12.1 mph19.5 kmh 30.25 in1024.4 mb 0.00 in0.0 mm 0.00 in0.0 mm 0.00 in0.0 mm
11:48 AM 85.5°F29.7°C 33.0°F0.6°C 16% 4.0 mph 6.4 kmh 9.8 mph15.8 kmh 30.25 in1024.4 mb 0.00 in0.0 mm 0.00 in0.0 mm 0.00 in0.0 mm
11:53 AM 86.0°F30.0°C 35.2°F1.8°C 17% 3.4 mph W5.5 kmh W 8.5 mph13.7 kmh 30.24 in1024.0 mb 0.00 in0.0 mm 0.00 in0.0 mm 0.00 in0.0 mm
11:58 AM 86.4°F30.2°C 32.0°F0.0°C 15% 8.4 mph WSW13.5 kmh WSW 10.5 mph16.9 kmh 30.24 in1024.0 mb 0.00 in0.0 mm 0.00 in0.0 mm 0.00 in0.0 mm
12:04 PM 86.2°F30.1°C 32.0°F0.0°C 15% 5.9 mph W9.5 kmh W 10.5 mph16.9 kmh 30.24 in1024.0 mb 0.00 in0.0 mm 0.00 in0.0 mm 0.00 in0.0 mm
12:09 PM 86.8°F30.4°C 37.5°F3.1°C 18% 0.6 mph ESE1.0 kmh ESE 9.8 mph15.8 kmh 30.24 in1024.0 mb 0.00 in0.0 mm 0.00 in0.0 mm 0.00 in0.0 mm
12:14 PM 87.1°F30.6°C 32.7°F0.4°C 15% 6.0 mph E9.7 kmh E 9.2 mph14.8 kmh 30.24 in1024.0 mb 0.00 in0.0 mm 0.00 in0.0 mm 0.00 in0.0 mm
12:19 PM 87.7°F30.9°C 38.4°F3.6°C 18% 2.2 mph S3.5 kmh S 9.2 mph14.8 kmh 30.23 in1023.7 mb 0.00 in0.0 mm 0.00 in0.0 mm 0.00 in0.0 mm
12:24 PM 89.3°F31.8°C 43.1°F6.2°C 20% 2.8 mph ESE4.5 kmh ESE 8.5 mph13.7 kmh 30.23 in1023.7 mb 0.00 in0.0 mm 0.00 in0.0 mm 0.00 in0.0 mm
12:29 PM 90.9°F32.7°C 44.4°F6.9°C 20% 4.3 mph SSE6.9 kmh SSE 4.7 mph7.6 kmh 30.23 in1023.7 mb 0.00 in0.0 mm 0.00 in0.0 mm 0.00 in0.0 mm
12:34 PM 91.1°F32.8°C 33.3°F0.7°C 13% 9.1 mph NE14.6 kmh NE 10.3 mph16.6 kmh 30.23 in1023.7 mb 0.00 in0.0 mm 0.00 in0.0 mm 0.00 in0.0 mm
12:39 PM 89.6°F32.0°C 38.2°F3.4°C 17% 2.6 mph SE4.2 kmh SE 10.3 mph16.6 kmh 30.23 in1023.7 mb 0.00 in0.0 mm 0.00 in0.0 mm 0.00 in0.0 mm
12:44 PM 90.4°F32.4°C 42.2°F5.7°C 19% 4.8 mph S7.7 kmh S 7.4 mph11.9 kmh 30.23 in1023.7 mb 0.00 in0.0 mm 0.00 in0.0 mm 0.00 in0.0 mm
12:49 PM 91.6°F33.1°C 43.2°F6.2°C 19% 4.8 mph SE7.7 kmh SE 7.4 mph11.9 kmh 30.23 in1023.7 mb 0.00 in0.0 mm 0.00 in0.0 mm 0.00 in0.0 mm
12:54 PM 92.5°F33.6°C 42.2°F5.7°C 18% 6.4 mph ESE10.3 kmh ESE 8.3 mph13.4 kmh 30.23 in1023.7 mb 0.00 in0.0 mm 0.00 in0.0 mm 0.00 in0.0 mm
12:59 PM 92.0°F33.3°C 33.0°F0.6°C 13% 4.2 mph NW6.8 kmh NW 8.3 mph13.4 kmh 30.23 in1023.7 mb 0.00 in0.0 mm 0.00 in0.0 mm 0.00 in0.0 mm
01:04 PM 90.9°F32.7°C 32.1°F0.1°C 13% 6.7 mph NW10.8 kmh NW 8.9 mph14.3 kmh 30.23 in1023.7 mb 0.00 in0.0 mm 0.00 in0.0 mm 0.00 in0.0 mm
01:09 PM 90.0°F32.2°C 31.4°F-0.3°C 13% 3.0 mph NNW4.8 kmh NNW 8.9 mph14.3 kmh 30.23 in1023.7 mb 0.00 in0.0 mm 0.00 in0.0 mm 0.00 in0.0 mm
01:14 PM 90.9°F32.7°C 37.5°F3.1°C 16% 2.5 mph E4.0 kmh E 7.8 mph12.6 kmh 30.22 in1023.4 mb 0.00 in0.0 mm 0.00 in0.0 mm 0.00 in0.0 mm
01:19 PM 93.1°F33.9°C 39.1°F3.9°C 16% 1.2 mph NE1.9 kmh NE 3.8 mph6.1 kmh 30.22 in1023.4 mb 0.00 in0.0 mm 0.00 in0.0 mm 0.00 in0.0 mm
01:24 PM 93.2°F34.0°C 33.9°F1.1°C 13% 7.7 mph NE12.4 kmh NE 9.6 mph15.4 kmh 30.22 in1023.4 mb 0.00 in0.0 mm 0.00 in0.0 mm 0.00 in0.0 mm
01:29 PM 91.8°F33.2°C 32.9°F0.5°C 13% 9.3 mph 15.0 kmh 12.8 mph20.6 kmh 30.22 in1023.4 mb 0.00 in0.0 mm 0.00 in0.0 mm 0.00 in0.0 mm
01:34 PM 90.7°F32.6°C 30.2°F-1.0°C 12% 8.8 mph NE14.2 kmh NE 12.8 mph20.6 kmh 30.22 in1023.4 mb 0.00 in0.0 mm 0.00 in0.0 mm 0.00 in0.0 mm
01:39 PM 90.4°F32.4°C 31.8°F-0.1°C 13% 6.8 mph E10.9 kmh E 12.1 mph19.5 kmh 30.22 in1023.4 mb 0.00 in0.0 mm 0.00 in0.0 mm 0.00 in0.0 mm
01:44 PM 91.4°F33.0°C 37.8°F3.2°C 16% 3.6 mph NNE5.8 kmh NNE 9.8 mph15.8 kmh 30.22 in1023.4 mb 0.00 in0.0 mm 0.00 in0.0 mm 0.00 in0.0 mm
01:49 PM 92.2°F33.4°C 38.3°F3.5°C 16% 4.3 mph SSE6.9 kmh SSE 9.8 mph15.8 kmh 30.22 in1023.4 mb 0.00 in0.0 mm 0.00 in0.0 mm 0.00 in0.0 mm
01:54 PM 93.8°F34.3°C 41.4°F5.2°C 17% 5.2 mph SE8.4 kmh SE 6.9 mph11.1 kmh 30.22 in1023.4 mb 0.00 in0.0 mm 0.00 in0.0 mm 0.00 in0.0 mm
02:00 PM 94.9°F34.9°C 42.3°F5.7°C 17% 6.6 mph E10.6 kmh E 8.9 mph14.3 kmh 30.21 in1023.0 mb 0.00 in0.0 mm 0.00 in0.0 mm 0.00 in0.0 mm
02:05 PM 94.3°F34.6°C 38.4°F3.6°C 15% 5.6 mph E9.0 kmh E 8.9 mph14.3 kmh 30.21 in1023.0 mb 0.00 in0.0 mm 0.00 in0.0 mm 0.00 in0.0 mm
02:10 PM 93.6°F34.2°C 37.7°F3.2°C 15% 5.1 mph SE8.2 kmh SE 7.8 mph12.6 kmh 30.21 in1023.0 mb 0.00 in0.0 mm 0.00 in0.0 mm 0.00 in0.0 mm
02:15 PM 94.3°F34.6°C 41.9°F5.5°C 17% 1.6 mph SSE2.6 kmh SSE 6.7 mph10.8 kmh 30.21 in1023.0 mb 0.00 in0.0 mm 0.00 in0.0 mm 0.00 in0.0 mm
02:19 PM 94.3°F34.6°C 33.0°F0.6°C 12% 7.6 mph N12.2 kmh N 9.2 mph14.8 kmh 30.21 in1023.0 mb 0.00 in0.0 mm 0.00 in0.0 mm 0.00 in0.0 mm
02:24 PM 93.6°F34.2°C 32.4°F0.2°C 12% 9.9 mph NNE15.9 kmh NNE 11.4 mph18.3 kmh 30.21 in1023.0 mb 0.00 in0.0 mm 0.00 in0.0 mm 0.00 in0.0 mm
02:29 PM 92.0°F33.3°C 29.5°F-1.4°C 11% 7.4 mph N11.9 kmh N 16.1 mph25.9 kmh 30.20 in1022.7 mb 0.00 in0.0 mm 0.00 in0.0 mm 0.00 in0.0 mm
02:34 PM 91.3°F32.9°C 29.0°F-1.7°C 11% 5.7 mph NE9.2 kmh NE 16.1 mph25.9 kmh 30.21 in1023.0 mb 0.00 in0.0 mm 0.00 in0.0 mm 0.00 in0.0 mm
02:39 PM 91.6°F33.1°C 36.3°F2.4°C 15% 3.5 mph SE5.6 kmh SE 10.3 mph16.6 kmh 30.21 in1023.0 mb 0.00 in0.0 mm 0.00 in0.0 mm 0.00 in0.0 mm
02:44 PM 93.4°F34.1°C 37.6°F3.1°C 15% 1.3 mph ESE2.1 kmh ESE 8.3 mph13.4 kmh 30.20 in1022.7 mb 0.00 in0.0 mm 0.00 in0.0 mm 0.00 in0.0 mm
02:49 PM 95.0°F35.0°C 33.6°F0.9°C 12% 4.8 mph WSW7.7 kmh WSW 8.3 mph13.4 kmh 30.20 in1022.7 mb 0.00 in0.0 mm 0.00 in0.0 mm 0.00 in0.0 mm
02:54 PM 95.4°F35.2°C 39.2°F4.0°C 15% 6.1 mph SE9.8 kmh SE 8.3 mph13.4 kmh 30.20 in1022.7 mb 0.00 in0.0 mm 0.00 in0.0 mm 0.00 in0.0 mm
03:00 PM 96.1°F35.6°C 36.2°F2.3°C 13% 4.4 mph E7.1 kmh E 6.7 mph10.8 kmh 30.20 in1022.7 mb 0.00 in0.0 mm 0.00 in0.0 mm 0.00 in0.0 mm
03:05 PM 96.1°F35.6°C 39.8°F4.3°C 15% 1.5 mph ESE2.4 kmh ESE 5.8 mph9.3 kmh 30.20 in1022.7 mb 0.00 in0.0 mm 0.00 in0.0 mm 0.00 in0.0 mm
03:10 PM 96.8°F36.0°C 36.7°F2.6°C 13% 6.3 mph E10.1 kmh E 10.5 mph16.9 kmh 30.20 in1022.7 mb 0.00 in0.0 mm 0.00 in0.0 mm 0.00 in0.0 mm
03:15 PM 96.3°F35.7°C 39.9°F4.4°C 15% 7.8 mph ENE12.6 kmh ENE 10.5 mph16.9 kmh 30.20 in1022.7 mb 0.00 in0.0 mm 0.00 in0.0 mm 0.00 in0.0 mm
03:20 PM 95.9°F35.5°C 37.8°F3.2°C 14% 4.9 mph E7.9 kmh E 10.3 mph16.6 kmh 30.19 in1022.4 mb 0.00 in0.0 mm 0.00 in0.0 mm 0.00 in0.0 mm
03:25 PM 96.5°F35.8°C 40.1°F4.5°C 15% 3.4 mph E5.5 kmh E 7.8 mph12.6 kmh 30.19 in1022.4 mb 0.00 in0.0 mm 0.00 in0.0 mm 0.00 in0.0 mm
03:30 PM 96.8°F36.0°C 38.5°F3.6°C 14% 1.0 mph NE1.6 kmh NE 4.9 mph7.9 kmh 30.19 in1022.4 mb 0.00 in0.0 mm 0.00 in0.0 mm 0.00 in0.0 mm
03:35 PM 97.2°F36.2°C 38.8°F3.8°C 14% 6.4 mph ESE10.3 kmh ESE 7.2 mph11.6 kmh 30.19 in1022.4 mb 0.00 in0.0 mm 0.00 in0.0 mm 0.00 in0.0 mm
03:40 PM 97.4°F36.3°C 40.8°F4.9°C 15% 5.9 mph SE9.5 kmh SE 9.2 mph14.8 kmh 30.19 in1022.4 mb 0.00 in0.0 mm 0.00 in0.0 mm 0.00 in0.0 mm
03:45 PM 97.4°F36.3°C 40.8°F4.9°C 15% 4.3 mph ESE6.9 kmh ESE 10.3 mph16.6 kmh 30.18 in1022.0 mb 0.00 in0.0 mm 0.00 in0.0 mm 0.00 in0.0 mm
03:50 PM 97.9°F36.6°C 41.2°F5.1°C 15% 7.1 mph SE11.4 kmh SE 10.3 mph16.6 kmh 30.18 in1022.0 mb 0.00 in0.0 mm 0.00 in0.0 mm 0.00 in0.0 mm
03:55 PM 98.3°F36.8°C 41.5°F5.3°C 15% 2.6 mph SW4.2 kmh SW 7.8 mph12.6 kmh 30.18 in1022.0 mb 0.00 in0.0 mm 0.00 in0.0 mm 0.00 in0.0 mm
04:00 PM 98.1°F36.7°C 37.7°F3.2°C 13% 3.9 mph NNE6.3 kmh NNE 6.3 mph10.1 kmh 30.18 in1022.0 mb 0.00 in0.0 mm 0.00 in0.0 mm 0.00 in0.0 mm
04:05 PM 97.6°F36.4°C 33.7°F0.9°C 11% 8.3 mph N13.4 kmh N 8.7 mph14.0 kmh 30.18 in1022.0 mb 0.00 in0.0 mm 0.00 in0.0 mm 0.00 in0.0 mm
04:10 PM 95.2°F35.1°C 32.0°F0.0°C 11% 10.9 mph 17.5 kmh 12.5 mph20.1 kmh 30.18 in1022.0 mb 0.00 in0.0 mm 0.00 in0.0 mm 0.00 in0.0 mm
04:15 PM 93.8°F34.3°C 30.8°F-0.7°C 11% 8.5 mph NNE13.7 kmh NNE 12.5 mph20.1 kmh 30.18 in1022.0 mb 0.00 in0.0 mm 0.00 in0.0 mm 0.00 in0.0 mm
04:20 PM 93.4°F34.1°C 32.3°F0.2°C 12% 5.6 mph E9.0 kmh E 10.5 mph16.9 kmh 30.18 in1022.0 mb 0.00 in0.0 mm 0.00 in0.0 mm 0.00 in0.0 mm
04:25 PM 94.5°F34.7°C 38.4°F3.6°C 15% 3.8 mph SSE6.1 kmh SSE 5.8 mph9.3 kmh 30.18 in1022.0 mb 0.00 in0.0 mm 0.00 in0.0 mm 0.00 in0.0 mm
04:30 PM 96.1°F35.6°C 39.8°F4.3°C 15% 5.5 mph E8.9 kmh E 7.6 mph12.2 kmh 30.17 in1021.7 mb 0.00 in0.0 mm 0.00 in0.0 mm 0.00 in0.0 mm
04:35 PM 97.0°F36.1°C 40.5°F4.7°C 15% 2.4 mph ESE3.9 kmh ESE 7.6 mph12.2 kmh 30.17 in1021.7 mb 0.00 in0.0 mm 0.00 in0.0 mm 0.00 in0.0 mm
04:40 PM 97.6°F36.4°C 37.3°F2.9°C 13% 3.3 mph E5.3 kmh E 6.0 mph9.7 kmh 30.17 in1021.7 mb 0.00 in0.0 mm 0.00 in0.0 mm 0.00 in0.0 mm
04:45 PM 96.3°F35.7°C 34.6°F1.4°C 12% 5.4 mph E8.7 kmh E 11.0 mph17.7 kmh 30.17 in1021.7 mb 0.00 in0.0 mm 0.00 in0.0 mm 0.00 in0.0 mm
04:50 PM 95.9°F35.5°C 36.0°F2.2°C 13% 4.7 mph ESE7.6 kmh ESE 11.0 mph17.7 kmh 30.17 in1021.7 mb 0.00 in0.0 mm 0.00 in0.0 mm 0.00 in0.0 mm
04:55 PM 95.8°F35.4°C 35.9°F2.2°C 13% 3.3 mph E5.3 kmh E 8.5 mph13.7 kmh 30.17 in1021.7 mb 0.00 in0.0 mm 0.00 in0.0 mm 0.00 in0.0 mm
05:01 PM 95.2°F35.1°C 32.0°F0.0°C 11% 8.9 mph 14.3 kmh 13.0 mph20.9 kmh 30.17 in1021.7 mb 0.00 in0.0 mm 0.00 in0.0 mm 0.00 in0.0 mm
05:06 PM 94.3°F34.6°C 31.2°F-0.4°C 11% 5.8 mph NE9.3 kmh NE 13.0 mph20.9 kmh 30.17 in1021.7 mb 0.00 in0.0 mm 0.00 in0.0 mm 0.00 in0.0 mm
05:11 PM 94.3°F34.6°C 31.2°F-0.4°C 11% 8.5 mph NNE13.7 kmh NNE 11.9 mph19.2 kmh 30.16 in1021.3 mb 0.00 in0.0 mm 0.00 in0.0 mm 0.00 in0.0 mm
05:15 PM 94.1°F34.5°C 32.9°F0.5°C 12% 4.4 mph NE7.1 kmh NE 9.8 mph15.8 kmh 30.16 in1021.3 mb 0.00 in0.0 mm 0.00 in0.0 mm 0.00 in0.0 mm
05:20 PM 93.6°F34.2°C 30.7°F-0.7°C 11% 10.5 mph NNE16.9 kmh NNE 12.8 mph20.6 kmh 30.17 in1021.7 mb 0.00 in0.0 mm 0.00 in0.0 mm 0.00 in0.0 mm
05:25 PM 92.3°F33.5°C 29.7°F-1.3°C 11% 10.6 mph N17.1 kmh N 12.8 mph20.6 kmh 30.16 in1021.3 mb 0.00 in0.0 mm 0.00 in0.0 mm 0.00 in0.0 mm
05:30 PM 91.8°F33.2°C 29.3°F-1.5°C 11% 4.5 mph NE7.2 kmh NE 11.4 mph18.3 kmh 30.17 in1021.7 mb 0.00 in0.0 mm 0.00 in0.0 mm 0.00 in0.0 mm
05:35 PM 92.2°F33.4°C 29.6°F-1.3°C 11% 8.4 mph NE13.5 kmh NE 11.4 mph18.3 kmh 30.16 in1021.3 mb 0.00 in0.0 mm 0.00 in0.0 mm 0.00 in0.0 mm
05:40 PM 92.0°F33.3°C 31.2°F-0.4°C 12% 5.9 mph E9.5 kmh E 9.2 mph14.8 kmh 30.16 in1021.3 mb 0.00 in0.0 mm 0.00 in0.0 mm 0.00 in0.0 mm
05:45 PM 91.8°F33.2°C 29.3°F-1.5°C 11% 10.6 mph N17.1 kmh N 12.1 mph19.5 kmh 30.16 in1021.3 mb 0.00 in0.0 mm 0.00 in0.0 mm 0.00 in0.0 mm
05:50 PM 91.4°F33.0°C 29.1°F-1.6°C 11% 7.4 mph NE11.9 kmh NE 12.1 mph19.5 kmh 30.16 in1021.3 mb 0.00 in0.0 mm 0.00 in0.0 mm 0.00 in0.0 mm
05:55 PM 91.1°F32.8°C 28.8°F-1.8°C 11% 8.6 mph NE13.8 kmh NE 12.8 mph20.6 kmh 30.16 in1021.3 mb 0.00 in0.0 mm 0.00 in0.0 mm 0.00 in0.0 mm
06:01 PM 90.9°F32.7°C 28.7°F-1.8°C 11% 9.2 mph NE14.8 kmh NE 12.8 mph20.6 kmh 30.15 in1021.0 mb 0.00 in0.0 mm 0.00 in0.0 mm 0.00 in0.0 mm
06:06 PM 90.7°F32.6°C 28.5°F-1.9°C 11% 9.3 mph NE15.0 kmh NE 10.3 mph16.6 kmh 30.16 in1021.3 mb 0.00 in0.0 mm 0.00 in0.0 mm 0.00 in0.0 mm
06:11 PM 90.7°F32.6°C 28.5°F-1.9°C 11% 5.7 mph ENE9.2 kmh ENE 10.1 mph16.3 kmh 30.16 in1021.3 mb 0.00 in0.0 mm 0.00 in0.0 mm 0.00 in0.0 mm
06:16 PM 90.9°F32.7°C 30.4°F-0.9°C 12% 5.9 mph ENE9.5 kmh ENE 7.2 mph11.6 kmh 30.16 in1021.3 mb 0.00 in0.0 mm 0.00 in0.0 mm 0.00 in0.0 mm
06:21 PM 90.9°F32.7°C 28.7°F-1.8°C 11% 7.3 mph NE11.7 kmh NE 8.7 mph14.0 kmh 30.16 in1021.3 mb 0.00 in0.0 mm 0.00 in0.0 mm 0.00 in0.0 mm
06:26 PM 90.4°F32.4°C 28.3°F-2.1°C 11% 7.4 mph 11.9 kmh 10.1 mph16.3 kmh 30.16 in1021.3 mb 0.00 in0.0 mm 0.00 in0.0 mm 0.00 in0.0 mm
06:31 PM 90.2°F32.3°C 29.9°F-1.2°C 12% 7.2 mph N11.6 kmh N 10.1 mph16.3 kmh 30.16 in1021.3 mb 0.00 in0.0 mm 0.00 in0.0 mm 0.00 in0.0 mm
06:36 PM 90.2°F32.3°C 29.9°F-1.2°C 12% 7.9 mph N12.7 kmh N 8.5 mph13.7 kmh 30.16 in1021.3 mb 0.00 in0.0 mm 0.00 in0.0 mm 0.00 in0.0 mm
06:41 PM 90.0°F32.2°C 29.7°F-1.3°C 12% 9.1 mph NNE14.6 kmh NNE 9.6 mph15.4 kmh 30.16 in1021.3 mb 0.00 in0.0 mm 0.00 in0.0 mm 0.00 in0.0 mm
06:46 PM 89.6°F32.0°C 29.4°F-1.4°C 12% 10.9 mph 17.5 kmh 11.9 mph19.2 kmh 30.16 in1021.3 mb 0.00 in0.0 mm 0.00 in0.0 mm 0.00 in0.0 mm
06:51 PM 89.3°F31.8°C 29.2°F-1.6°C 12% 8.3 mph 13.4 kmh 13.2 mph21.2 kmh 30.16 in1021.3 mb 0.00 in0.0 mm 0.00 in0.0 mm 0.00 in0.0 mm
06:56 PM 88.9°F31.6°C 28.9°F-1.7°C 12% 8.5 mph 13.7 kmh 13.2 mph21.2 kmh 30.16 in1021.3 mb 0.00 in0.0 mm 0.00 in0.0 mm 0.00 in0.0 mm
07:01 PM 88.4°F31.3°C 30.3°F-0.9°C 13% 9.2 mph 14.8 kmh 13.4 mph21.6 kmh 30.16 in1021.3 mb 0.00 in0.0 mm 0.00 in0.0 mm 0.00 in0.0 mm
07:06 PM 87.8°F31.0°C 29.9°F-1.2°C 13% 12.1 mph 19.5 kmh 15.0 mph24.1 kmh 30.16 in1021.3 mb 0.00 in0.0 mm 0.00 in0.0 mm 0.00 in0.0 mm
07:11 PM 87.5°F30.8°C 29.5°F-1.4°C 13% 9.0 mph N14.5 kmh N 15.0 mph24.1 kmh 30.16 in1021.3 mb 0.00 in0.0 mm 0.00 in0.0 mm 0.00 in0.0 mm
07:16 PM 87.1°F30.6°C 29.3°F-1.5°C 13% 9.2 mph 14.8 kmh 14.1 mph22.7 kmh 30.16 in1021.3 mb 0.00 in0.0 mm 0.00 in0.0 mm 0.00 in0.0 mm
07:21 PM 86.9°F30.5°C 30.8°F-0.7°C 14% 7.9 mph N12.7 kmh N 11.2 mph18.0 kmh 30.16 in1021.3 mb 0.00 in0.0 mm 0.00 in0.0 mm 0.00 in0.0 mm
07:26 PM 86.8°F30.4°C 32.4°F0.2°C 15% 8.7 mph NNW14.0 kmh NNW 9.8 mph15.8 kmh 30.16 in1021.3 mb 0.00 in0.0 mm 0.00 in0.0 mm 0.00 in0.0 mm
07:31 PM 86.0°F30.0°C 31.8°F-0.1°C 15% 7.8 mph N12.6 kmh N 10.1 mph16.3 kmh 30.16 in1021.3 mb 0.00 in0.0 mm 0.00 in0.0 mm 0.00 in0.0 mm
07:36 PM 85.7°F29.8°C 31.5°F-0.3°C 15% 8.9 mph N14.3 kmh N 10.1 mph16.3 kmh 30.17 in1021.7 mb 0.00 in0.0 mm 0.00 in0.0 mm 0.00 in0.0 mm
07:41 PM 85.1°F29.5°C 32.8°F0.4°C 16% 7.5 mph N12.1 kmh N 9.4 mph15.1 kmh 30.17 in1021.7 mb 0.00 in0.0 mm 0.00 in0.0 mm 0.00 in0.0 mm
07:46 PM 84.6°F29.2°C 32.3°F0.2°C 16% 7.2 mph 11.6 kmh 9.2 mph14.8 kmh 30.17 in1021.7 mb 0.00 in0.0 mm 0.00 in0.0 mm 0.00 in0.0 mm
07:51 PM 84.1°F28.9°C 31.9°F-0.1°C 16% 5.7 mph N9.2 kmh N 7.6 mph12.2 kmh 30.17 in1021.7 mb 0.00 in0.0 mm 0.00 in0.0 mm 0.00 in0.0 mm
07:56 PM 83.7°F28.7°C 33.3°F0.7°C 17% 6.3 mph 10.1 kmh 7.4 mph11.9 kmh 30.17 in1021.7 mb 0.00 in0.0 mm 0.00 in0.0 mm 0.00 in0.0 mm
08:02 PM 82.8°F28.2°C 32.7°F0.4°C 17% 6.2 mph 10.0 kmh 7.6 mph12.2 kmh 30.17 in1021.7 mb 0.00 in0.0 mm 0.00 in0.0 mm 0.00 in0.0 mm
08:07 PM 81.7°F27.6°C 31.8°F-0.1°C 17% 5.4 mph 8.7 kmh 7.6 mph12.2 kmh 30.17 in1021.7 mb 0.00 in0.0 mm 0.00 in0.0 mm 0.00 in0.0 mm
08:12 PM 80.5°F26.9°C 32.5°F0.3°C 18% 6.2 mph 10.0 kmh 6.7 mph10.8 kmh 30.17 in1021.7 mb 0.00 in0.0 mm 0.00 in0.0 mm 0.00 in0.0 mm
08:17 PM 79.4°F26.3°C 31.5°F-0.3°C 18% 4.9 mph N7.9 kmh N 6.7 mph10.8 kmh 30.17 in1021.7 mb 0.00 in0.0 mm 0.00 in0.0 mm 0.00 in0.0 mm
08:22 PM 78.3°F25.7°C 32.3°F0.2°C 19% 5.9 mph 9.5 kmh 6.3 mph10.1 kmh 30.17 in1021.7 mb 0.00 in0.0 mm 0.00 in0.0 mm 0.00 in0.0 mm
08:26 PM 77.6°F25.3°C 31.7°F-0.2°C 19% 6.1 mph 9.8 kmh 6.3 mph10.1 kmh 30.18 in1022.0 mb 0.00 in0.0 mm 0.00 in0.0 mm 0.00 in0.0 mm
08:31 PM 76.5°F24.7°C 32.5°F0.3°C 20% 6.1 mph N9.8 kmh N 6.3 mph10.1 kmh 30.18 in1022.0 mb 0.00 in0.0 mm 0.00 in0.0 mm 0.00 in0.0 mm
08:36 PM 75.6°F24.2°C 32.9°F0.5°C 21% 6.1 mph 9.8 kmh 6.9 mph11.1 kmh 30.18 in1022.0 mb 0.00 in0.0 mm 0.00 in0.0 mm 0.00 in0.0 mm
08:41 PM 74.9°F23.8°C 32.2°F0.1°C 21% 5.1 mph 8.2 kmh 6.9 mph11.1 kmh 30.18 in1022.0 mb 0.00 in0.0 mm 0.00 in0.0 mm 0.00 in0.0 mm
08:46 PM 74.2°F23.4°C 32.7°F0.4°C 22% 6.3 mph NNW10.1 kmh NNW 7.6 mph12.2 kmh 30.18 in1022.0 mb 0.00 in0.0 mm 0.00 in0.0 mm 0.00 in0.0 mm
08:51 PM 73.4°F23.0°C 32.0°F0.0°C 22% 5.2 mph N8.4 kmh N 7.6 mph12.2 kmh 30.19 in1022.4 mb 0.00 in0.0 mm 0.00 in0.0 mm 0.00 in0.0 mm
08:56 PM 72.5°F22.5°C 31.3°F-0.4°C 22% 6.4 mph N10.3 kmh N 6.5 mph10.5 kmh 30.19 in1022.4 mb 0.00 in0.0 mm 0.00 in0.0 mm 0.00 in0.0 mm
09:02 PM 71.6°F22.0°C 30.5°F-0.8°C 22% 6.2 mph 10.0 kmh 6.5 mph10.5 kmh 30.19 in1022.4 mb 0.00 in0.0 mm 0.00 in0.0 mm 0.00 in0.0 mm
09:07 PM 71.1°F21.7°C 31.1°F-0.5°C 23% 5.3 mph 8.5 kmh 6.5 mph10.5 kmh 30.19 in1022.4 mb 0.00 in0.0 mm 0.00 in0.0 mm 0.00 in0.0 mm
09:12 PM 70.6°F21.4°C 30.6°F-0.8°C 23% 6.8 mph 10.9 kmh 7.6 mph12.2 kmh 30.20 in1022.7 mb 0.00 in0.0 mm 0.00 in0.0 mm 0.00 in0.0 mm
09:17 PM 70.0°F21.1°C 30.2°F-1.0°C 23% 4.5 mph 7.2 kmh 7.6 mph12.2 kmh 30.20 in1022.7 mb 0.00 in0.0 mm 0.00 in0.0 mm 0.00 in0.0 mm
09:22 PM 69.5°F20.8°C 30.7°F-0.7°C 24% 6.0 mph N9.7 kmh N 6.5 mph10.5 kmh 30.20 in1022.7 mb 0.00 in0.0 mm 0.00 in0.0 mm 0.00 in0.0 mm
09:27 PM 69.1°F20.6°C 30.4°F-0.9°C 24% 6.4 mph NNW10.3 kmh NNW 6.9 mph11.1 kmh 30.20 in1022.7 mb 0.00 in0.0 mm 0.00 in0.0 mm 0.00 in0.0 mm
09:32 PM 68.4°F20.2°C 29.8°F-1.2°C 24% 5.1 mph 8.2 kmh 6.9 mph11.1 kmh 30.20 in1022.7 mb 0.00 in0.0 mm 0.00 in0.0 mm 0.00 in0.0 mm
09:37 PM 67.7°F19.8°C 30.3°F-0.9°C 25% 4.6 mph N7.4 kmh N 6.3 mph10.1 kmh 30.20 in1022.7 mb 0.00 in0.0 mm 0.00 in0.0 mm 0.00 in0.0 mm
09:42 PM 67.3°F19.6°C 29.9°F-1.2°C 25% 5.1 mph N8.2 kmh N 5.6 mph9.0 kmh 30.20 in1022.7 mb 0.00 in0.0 mm 0.00 in0.0 mm 0.00 in0.0 mm
09:47 PM 67.0°F19.4°C 30.6°F-0.8°C 26% 5.3 mph 8.5 kmh 5.8 mph9.3 kmh 30.20 in1022.7 mb 0.00 in0.0 mm 0.00 in0.0 mm 0.00 in0.0 mm
09:52 PM 67.0°F19.4°C 30.6°F-0.8°C 26% 5.9 mph 9.5 kmh 6.9 mph11.1 kmh 30.21 in1023.0 mb 0.00 in0.0 mm 0.00 in0.0 mm 0.00 in0.0 mm
09:57 PM 66.8°F19.3°C 30.4°F-0.9°C 26% 4.7 mph 7.6 kmh 6.9 mph11.1 kmh 30.21 in1023.0 mb 0.00 in0.0 mm 0.00 in0.0 mm 0.00 in0.0 mm
10:02 PM 66.4°F19.1°C 30.2°F-1.0°C 26% 3.5 mph NNW5.6 kmh NNW 5.6 mph9.0 kmh 30.21 in1023.0 mb 0.00 in0.0 mm 0.00 in0.0 mm 0.00 in0.0 mm
10:07 PM 65.7°F18.7°C 29.5°F-1.4°C 26% 1.7 mph 2.7 kmh 4.7 mph7.6 kmh 30.21 in1023.0 mb 0.00 in0.0 mm 0.00 in0.0 mm 0.00 in0.0 mm
10:12 PM 65.2°F18.4°C 29.1°F-1.6°C 26% 1.5 mph 2.4 kmh 2.7 mph4.3 kmh 30.21 in1023.0 mb 0.00 in0.0 mm 0.00 in0.0 mm 0.00 in0.0 mm
10:17 PM 64.6°F18.1°C 28.6°F-1.9°C 26% 1.1 mph 1.8 kmh 1.8 mph2.9 kmh 30.21 in1023.0 mb 0.00 in0.0 mm 0.00 in0.0 mm 0.00 in0.0 mm
10:22 PM 64.1°F17.8°C 29.2°F-1.6°C 27% 0.3 mph 0.5 kmh 1.8 mph2.9 kmh 30.21 in1023.0 mb 0.00 in0.0 mm 0.00 in0.0 mm 0.00 in0.0 mm
10:27 PM 63.7°F17.6°C 28.8°F-1.8°C 27% 0.8 mph W1.3 kmh W 1.8 mph2.9 kmh 30.21 in1023.0 mb 0.00 in0.0 mm 0.00 in0.0 mm 0.00 in0.0 mm
10:32 PM 63.0°F17.2°C 29.2°F-1.6°C 28% 1.8 mph SSE2.9 kmh SSE 2.5 mph4.0 kmh 30.21 in1023.0 mb 0.00 in0.0 mm 0.00 in0.0 mm 0.00 in0.0 mm
10:37 PM 62.6°F17.0°C 29.8°F-1.2°C 29% 2.3 mph SE3.7 kmh SE 2.5 mph4.0 kmh 30.22 in1023.4 mb 0.00 in0.0 mm 0.00 in0.0 mm 0.00 in0.0 mm
10:42 PM 62.3°F16.8°C 29.5°F-1.4°C 29% 2.7 mph SW4.3 kmh SW 3.4 mph5.5 kmh 30.22 in1023.4 mb 0.00 in0.0 mm 0.00 in0.0 mm 0.00 in0.0 mm
10:47 PM 62.1°F16.7°C 29.4°F-1.4°C 29% 0.2 mph SW0.3 kmh SW 3.4 mph5.5 kmh 30.22 in1023.4 mb 0.00 in0.0 mm 0.00 in0.0 mm 0.00 in0.0 mm
10:52 PM 62.1°F16.7°C 29.4°F-1.4°C 29% 1.2 mph SW1.9 kmh SW 2.9 mph4.7 kmh 30.22 in1023.4 mb 0.00 in0.0 mm 0.00 in0.0 mm 0.00 in0.0 mm
10:57 PM 62.1°F16.7°C 29.4°F-1.4°C 29% Calm Calm 2.9 mph4.7 kmh 30.22 in1023.4 mb 0.00 in0.0 mm 0.00 in0.0 mm 0.00 in0.0 mm
11:03 PM 62.3°F16.8°C 29.5°F-1.4°C 29% 0.2 mph SW0.3 kmh SW 0.9 mph1.4 kmh 30.22 in1023.4 mb 0.00 in0.0 mm 0.00 in0.0 mm 0.00 in0.0 mm
11:08 PM 62.6°F17.0°C 29.8°F-1.2°C 29% Calm Calm 0.4 mph0.6 kmh 30.22 in1023.4 mb 0.00 in0.0 mm 0.00 in0.0 mm 0.00 in0.0 mm
11:13 PM 62.5°F16.9°C 29.6°F-1.3°C 29% 2.3 mph ESE3.7 kmh ESE 3.1 mph5.0 kmh 30.22 in1023.4 mb 0.00 in0.0 mm 0.00 in0.0 mm 0.00 in0.0 mm
11:18 PM 61.9°F16.6°C 29.2°F-1.6°C 29% 2.0 mph NE3.2 kmh NE 3.1 mph5.0 kmh 30.22 in1023.4 mb 0.00 in0.0 mm 0.00 in0.0 mm 0.00 in0.0 mm
11:23 PM 61.6°F16.4°C 28.9°F-1.7°C 29% 1.6 mph NE2.6 kmh NE 2.7 mph4.3 kmh 30.22 in1023.4 mb 0.00 in0.0 mm 0.00 in0.0 mm 0.00 in0.0 mm
11:28 PM 61.2°F16.2°C 29.5°F-1.4°C 30% 2.6 mph E4.2 kmh E 2.7 mph4.3 kmh 30.22 in1023.4 mb 0.00 in0.0 mm 0.00 in0.0 mm 0.00 in0.0 mm
11:33 PM 60.8°F16.0°C 28.2°F-2.1°C 29% 4.2 mph NNE6.8 kmh NNE 4.3 mph6.9 kmh 30.22 in1023.4 mb 0.00 in0.0 mm 0.00 in0.0 mm 0.00 in0.0 mm
11:38 PM 59.6°F15.3°C 27.2°F-2.7°C 29% 5.1 mph 8.2 kmh 5.4 mph8.7 kmh 30.22 in1023.4 mb 0.00 in0.0 mm 0.00 in0.0 mm 0.00 in0.0 mm
11:43 PM 58.3°F14.6°C 27.1°F-2.7°C 30% 2.3 mph 3.7 kmh 5.4 mph8.7 kmh 30.22 in1023.4 mb 0.00 in0.0 mm 0.00 in0.0 mm 0.00 in0.0 mm
11:48 PM 58.0°F14.4°C 27.5°F-2.5°C 31% 1.1 mph 1.8 kmh 4.0 mph6.4 kmh 30.22 in1023.4 mb 0.00 in0.0 mm 0.00 in0.0 mm 0.00 in0.0 mm
11:53 PM 57.6°F14.2°C 27.1°F-2.7°C 31% 0.2 mph 0.3 kmh 1.3 mph2.1 kmh 30.22 in1023.4 mb 0.00 in0.0 mm 0.00 in0.0 mm 0.00 in0.0 mm
11:58 PM 57.2°F14.0°C 27.6°F-2.4°C 32% Calm Calm 0.7 mph1.1 kmh 30.22 in1023.4 mb 0.00 in0.0 mm 0.00 in0.0 mm 0.00 in0.0 mm